sensor_id;sensor_type;location;lat;lon;timestamp;pressure;altitude;pressure_sealevel;temperature
23992;BMP280;12205;50.600;4.608;2023-03-20T00:00:51;100570.16;;;6.53
23992;BMP280;12205;50.600;4.608;2023-03-20T00:03:18;100577.31;;;6.52
23992;BMP280;12205;50.600;4.608;2023-03-20T00:05:46;100568.56;;;6.52
23992;BMP280;12205;50.600;4.608;2023-03-20T00:08:14;100548.41;;;6.51
23992;BMP280;12205;50.600;4.608;2023-03-20T00:10:44;100544.69;;;6.52
23992;BMP280;12205;50.600;4.608;2023-03-20T00:13:20;100525.00;;;6.53
23992;BMP280;12205;50.600;4.608;2023-03-20T00:15:48;100531.50;;;6.55
23992;BMP280;12205;50.600;4.608;2023-03-20T00:18:19;100513.72;;;6.56
23992;BMP280;12205;50.600;4.608;2023-03-20T00:20:49;100523.53;;;6.55
23992;BMP280;12205;50.600;4.608;2023-03-20T00:23:17;100524.34;;;6.56
23992;BMP280;12205;50.600;4.608;2023-03-20T00:25:45;100511.50;;;6.58
23992;BMP280;12205;50.600;4.608;2023-03-20T00:28:35;100510.09;;;6.60
23992;BMP280;12205;50.600;4.608;2023-03-20T00:31:05;100509.78;;;6.62
23992;BMP280;12205;50.600;4.608;2023-03-20T00:33:36;100497.31;;;6.62
23992;BMP280;12205;50.600;4.608;2023-03-20T00:36:04;100487.91;;;6.65
23992;BMP280;12205;50.600;4.608;2023-03-20T00:38:32;100486.03;;;6.66
23992;BMP280;12205;50.600;4.608;2023-03-20T00:41:00;100484.63;;;6.68
23992;BMP280;12205;50.600;4.608;2023-03-20T00:43:29;100496.78;;;6.69
23992;BMP280;12205;50.600;4.608;2023-03-20T00:45:56;100493.84;;;6.71
23992;BMP280;12205;50.600;4.608;2023-03-20T00:48:23;100502.56;;;6.71
23992;BMP280;12205;50.600;4.608;2023-03-20T00:50:51;100497.72;;;6.73
23992;BMP280;12205;50.600;4.608;2023-03-20T00:53:19;100509.91;;;6.74
23992;BMP280;12205;50.600;4.608;2023-03-20T00:55:46;100516.78;;;6.75
23992;BMP280;12205;50.600;4.608;2023-03-20T00:58:14;100524.44;;;6.77
23992;BMP280;12205;50.600;4.608;2023-03-20T01:00:44;100541.78;;;6.74
23992;BMP280;12205;50.600;4.608;2023-03-20T01:03:17;100550.56;;;6.66
23992;BMP280;12205;50.600;4.608;2023-03-20T01:05:48;100533.97;;;6.69
23992;BMP280;12205;50.600;4.608;2023-03-20T01:08:19;100501.47;;;6.72
23992;BMP280;12205;50.600;4.608;2023-03-20T01:10:51;100459.91;;;6.76
23992;BMP280;12205;50.600;4.608;2023-03-20T01:13:23;100443.75;;;6.81
23992;BMP280;12205;50.600;4.608;2023-03-20T01:15:54;100434.03;;;6.86
23992;BMP280;12205;50.600;4.608;2023-03-20T01:18:24;100434.69;;;6.91
23992;BMP280;12205;50.600;4.608;2023-03-20T01:20:51;100448.53;;;6.97
23992;BMP280;12205;50.600;4.608;2023-03-20T01:23:20;100439.44;;;6.98
23992;BMP280;12205;50.600;4.608;2023-03-20T01:25:49;100415.34;;;7.03
23992;BMP280;12205;50.600;4.608;2023-03-20T01:28:19;100404.97;;;7.10
23992;BMP280;12205;50.600;4.608;2023-03-20T01:30:49;100390.09;;;7.18
23992;BMP280;12205;50.600;4.608;2023-03-20T01:33:21;100384.25;;;7.25
23992;BMP280;12205;50.600;4.608;2023-03-20T01:35:52;100393.22;;;7.32
23992;BMP280;12205;50.600;4.608;2023-03-20T01:38:24;100408.69;;;7.39
23992;BMP280;12205;50.600;4.608;2023-03-20T01:40:58;100401.59;;;7.43
23992;BMP280;12205;50.600;4.608;2023-03-20T01:43:29;100400.03;;;7.42
23992;BMP280;12205;50.600;4.608;2023-03-20T01:46:02;100410.03;;;7.45
23992;BMP280;12205;50.600;4.608;2023-03-20T01:49:00;100400.31;;;7.49
23992;BMP280;12205;50.600;4.608;2023-03-20T01:51:31;100408.84;;;7.55
23992;BMP280;12205;50.600;4.608;2023-03-20T01:54:08;100405.97;;;7.60
23992;BMP280;12205;50.600;4.608;2023-03-20T01:56:51;100404.13;;;7.61
23992;BMP280;12205;50.600;4.608;2023-03-20T01:59:25;100420.66;;;7.45
23992;BMP280;12205;50.600;4.608;2023-03-20T02:01:53;100413.13;;;7.47
23992;BMP280;12205;50.600;4.608;2023-03-20T02:04:32;100417.59;;;7.56
23992;BMP280;12205;50.600;4.608;2023-03-20T02:07:09;100419.59;;;7.59
23992;BMP280;12205;50.600;4.608;2023-03-20T02:10:03;100422.09;;;7.64
23992;BMP280;12205;50.600;4.608;2023-03-20T02:12:40;100424.75;;;7.64
23992;BMP280;12205;50.600;4.608;2023-03-20T02:15:13;100428.38;;;7.59
23992;BMP280;12205;50.600;4.608;2023-03-20T02:17:53;100427.41;;;7.64
23992;BMP280;12205;50.600;4.608;2023-03-20T02:20:43;100428.28;;;7.68
23992;BMP280;12205;50.600;4.608;2023-03-20T02:24:21;100436.59;;;7.66
23992;BMP280;12205;50.600;4.608;2023-03-20T02:27:04;100440.03;;;7.67
23992;BMP280;12205;50.600;4.608;2023-03-20T02:30:11;100434.28;;;7.65
23992;BMP280;12205;50.600;4.608;2023-03-20T02:37:11;100379.44;;;7.39
23992;BMP280;12205;50.600;4.608;2023-03-20T02:40:13;100373.00;;;7.40
23992;BMP280;12205;50.600;4.608;2023-03-20T02:42:55;100370.34;;;7.40
23992;BMP280;12205;50.600;4.608;2023-03-20T02:45:28;100369.59;;;7.40
23992;BMP280;12205;50.600;4.608;2023-03-20T02:48:20;100371.91;;;7.41
23992;BMP280;12205;50.600;4.608;2023-03-20T02:50:55;100371.00;;;7.37
23992;BMP280;12205;50.600;4.608;2023-03-20T02:53:39;100375.84;;;7.35
23992;BMP280;12205;50.600;4.608;2023-03-20T02:56:16;100366.97;;;7.31
23992;BMP280;12205;50.600;4.608;2023-03-20T02:58:50;100368.53;;;7.32
23992;BMP280;12205;50.600;4.608;2023-03-20T03:01:23;100359.47;;;7.33
23992;BMP280;12205;50.600;4.608;2023-03-20T03:03:57;100349.72;;;7.37
23992;BMP280;12205;50.600;4.608;2023-03-20T03:06:29;100364.31;;;7.31
23992;BMP280;12205;50.600;4.608;2023-03-20T03:09:05;100358.34;;;7.34
23992;BMP280;12205;50.600;4.608;2023-03-20T03:11:44;100365.03;;;7.40
23992;BMP280;12205;50.600;4.608;2023-03-20T03:14:18;100359.50;;;7.45
23992;BMP280;12205;50.600;4.608;2023-03-20T03:16:48;100368.41;;;7.49
23992;BMP280;12205;50.600;4.608;2023-03-20T03:19:18;100372.25;;;7.40
23992;BMP280;12205;50.600;4.608;2023-03-20T03:21:48;100366.31;;;7.34
23992;BMP280;12205;50.600;4.608;2023-03-20T03:24:28;100362.56;;;7.35
23992;BMP280;12205;50.600;4.608;2023-03-20T03:26:58;100367.88;;;7.35
23992;BMP280;12205;50.600;4.608;2023-03-20T03:29:30;100385.41;;;7.36
23992;BMP280;12205;50.600;4.608;2023-03-20T03:32:00;100382.41;;;7.38
23992;BMP280;12205;50.600;4.608;2023-03-20T03:34:29;100377.25;;;7.41
23992;BMP280;12205;50.600;4.608;2023-03-20T03:37:05;100376.44;;;7.41
23992;BMP280;12205;50.600;4.608;2023-03-20T03:39:40;100376.13;;;7.42
23992;BMP280;12205;50.600;4.608;2023-03-20T03:42:23;100373.34;;;7.39
23992;BMP280;12205;50.600;4.608;2023-03-20T03:45:00;100377.84;;;7.38
23992;BMP280;12205;50.600;4.608;2023-03-20T03:47:32;100380.41;;;7.34
23992;BMP280;12205;50.600;4.608;2023-03-20T03:50:09;100372.28;;;7.31
23992;BMP280;12205;50.600;4.608;2023-03-20T03:52:40;100371.34;;;7.14
23992;BMP280;12205;50.600;4.608;2023-03-20T03:55:13;100364.28;;;7.18
23992;BMP280;12205;50.600;4.608;2023-03-20T03:58:03;100355.31;;;7.23
23992;BMP280;12205;50.600;4.608;2023-03-20T04:00:33;100354.94;;;7.12
23992;BMP280;12205;50.600;4.608;2023-03-20T04:03:04;100353.78;;;7.01
23992;BMP280;12205;50.600;4.608;2023-03-20T04:05:39;100353.00;;;7.00
23992;BMP280;12205;50.600;4.608;2023-03-20T04:08:07;100351.75;;;6.98
23992;BMP280;12205;50.600;4.608;2023-03-20T04:10:35;100341.59;;;7.00
23992;BMP280;12205;50.600;4.608;2023-03-20T04:13:02;100341.59;;;7.00
23992;BMP280;12205;50.600;4.608;2023-03-20T04:15:30;100342.69;;;6.99
23992;BMP280;12205;50.600;4.608;2023-03-20T04:17:57;100350.50;;;6.95
23992;BMP280;12205;50.600;4.608;2023-03-20T04:20:24;100350.50;;;6.95
23992;BMP280;12205;50.600;4.608;2023-03-20T04:22:51;100350.84;;;6.94
23992;BMP280;12205;50.600;4.608;2023-03-20T04:25:22;100347.28;;;6.90
23992;BMP280;12205;50.600;4.608;2023-03-20T04:27:54;100348.41;;;6.89
23992;BMP280;12205;50.600;4.608;2023-03-20T04:30:52;100344.84;;;6.85
23992;BMP280;12205;50.600;4.608;2023-03-20T04:33:51;100333.81;;;6.74
23992;BMP280;12205;50.600;4.608;2023-03-20T04:36:33;100326.28;;;6.76
23992;BMP280;12205;50.600;4.608;2023-03-20T04:39:03;100332.09;;;6.69
23992;BMP280;12205;50.600;4.608;2023-03-20T04:41:30;100331.78;;;6.71
23992;BMP280;12205;50.600;4.608;2023-03-20T04:43:59;100326.16;;;6.72
23992;BMP280;12205;50.600;4.608;2023-03-20T04:46:26;100336.00;;;6.72
23992;BMP280;12205;50.600;4.608;2023-03-20T04:48:53;100328.16;;;6.75
23992;BMP280;12205;50.600;4.608;2023-03-20T04:51:25;100331.75;;;6.79
23992;BMP280;12205;50.600;4.608;2023-03-20T04:53:53;100339.38;;;6.81
23992;BMP280;12205;50.600;4.608;2023-03-20T04:56:21;100328.88;;;6.85
23992;BMP280;12205;50.600;4.608;2023-03-20T04:58:50;100344.44;;;6.74
23992;BMP280;12205;50.600;4.608;2023-03-20T05:01:21;100342.09;;;6.72
23992;BMP280;12205;50.600;4.608;2023-03-20T05:03:48;100338.31;;;6.73
23992;BMP280;12205;50.600;4.608;2023-03-20T05:06:16;100332.56;;;6.71
23992;BMP280;12205;50.600;4.608;2023-03-20T05:08:44;100331.19;;;6.65
23992;BMP280;12205;50.600;4.608;2023-03-20T05:11:11;100318.75;;;6.57
23992;BMP280;12205;50.600;4.608;2023-03-20T05:13:53;100311.88;;;6.56
23992;BMP280;12205;50.600;4.608;2023-03-20T05:16:32;100308.34;;;6.52
23992;BMP280;12205;50.600;4.608;2023-03-20T05:19:11;100309.00;;;6.40
23992;BMP280;12205;50.600;4.608;2023-03-20T05:21:49;100291.22;;;6.40
23992;BMP280;12205;50.600;4.608;2023-03-20T05:24:35;100278.84;;;6.44
23992;BMP280;12205;50.600;4.608;2023-03-20T05:27:08;100280.69;;;6.53
23992;BMP280;12205;50.600;4.608;2023-03-20T05:29:55;100278.03;;;6.53
23992;BMP280;12205;50.600;4.608;2023-03-20T05:32:42;100276.72;;;6.59
23992;BMP280;12205;50.600;4.608;2023-03-20T05:35:27;100281.84;;;6.64
23992;BMP280;12205;50.600;4.608;2023-03-20T05:38:04;100289.16;;;6.67
23992;BMP280;12205;50.600;4.608;2023-03-20T05:40:56;100285.78;;;6.58
23992;BMP280;12205;50.600;4.608;2023-03-20T05:43:53;100280.28;;;6.63
23992;BMP280;12205;50.600;4.608;2023-03-20T05:46:35;100283.66;;;6.72
23992;BMP280;12205;50.600;4.608;2023-03-20T05:49:22;100289.81;;;6.64
23992;BMP280;12205;50.600;4.608;2023-03-20T05:52:08;100276.78;;;6.71
23992;BMP280;12205;50.600;4.608;2023-03-20T05:54:44;100294.91;;;6.69
23992;BMP280;12205;50.600;4.608;2023-03-20T05:57:38;100289.50;;;6.66
23992;BMP280;12205;50.600;4.608;2023-03-20T06:00:26;100296.88;;;6.60
23992;BMP280;12205;50.600;4.608;2023-03-20T06:03:13;100281.84;;;6.64
23992;BMP280;12205;50.600;4.608;2023-03-20T06:05:57;100293.09;;;6.61
23992;BMP280;12205;50.600;4.608;2023-03-20T06:08:24;100297.53;;;6.57
23992;BMP280;12205;50.600;4.608;2023-03-20T06:10:52;100289.22;;;6.58
23992;BMP280;12205;50.600;4.608;2023-03-20T06:13:19;100287.53;;;6.54
23992;BMP280;12205;50.600;4.608;2023-03-20T06:15:47;100295.72;;;6.49
23992;BMP280;12205;50.600;4.608;2023-03-20T06:18:16;100297.53;;;6.57
23992;BMP280;12205;50.600;4.608;2023-03-20T06:20:43;100294.00;;;6.65
23992;BMP280;12205;50.600;4.608;2023-03-20T06:23:12;100303.34;;;6.71
23992;BMP280;12205;50.600;4.608;2023-03-20T06:25:39;100302.06;;;6.77
23992;BMP280;12205;50.600;4.608;2023-03-20T06:28:07;100312.47;;;6.82
23992;BMP280;12205;50.600;4.608;2023-03-20T06:30:35;100325.00;;;6.82
23992;BMP280;12205;50.600;4.608;2023-03-20T06:33:05;100329.50;;;6.81
23992;BMP280;12205;50.600;4.608;2023-03-20T06:35:41;100324.88;;;6.78
23992;BMP280;12205;50.600;4.608;2023-03-20T06:38:08;100319.28;;;6.71
23992;BMP280;12205;50.600;4.608;2023-03-20T06:40:37;100313.06;;;6.67
23992;BMP280;12205;50.600;4.608;2023-03-20T06:43:04;100300.53;;;6.76
23992;BMP280;12205;50.600;4.608;2023-03-20T06:45:41;100293.72;;;6.88
23992;BMP280;12205;50.600;4.608;2023-03-20T06:48:17;100295.94;;;6.98
23992;BMP280;12205;50.600;4.608;2023-03-20T06:50:47;100309.94;;;7.07
23992;BMP280;12205;50.600;4.608;2023-03-20T06:53:17;100324.31;;;7.06
23992;BMP280;12205;50.600;4.608;2023-03-20T06:55:52;100334.22;;;7.06
23992;BMP280;12205;50.600;4.608;2023-03-20T06:58:20;100334.88;;;7.03
23992;BMP280;12205;50.600;4.608;2023-03-20T07:00:50;100332.75;;;7.08
23992;BMP280;12205;50.600;4.608;2023-03-20T07:03:19;100334.78;;;7.11
23992;BMP280;12205;50.600;4.608;2023-03-20T07:05:48;100344.91;;;7.18
23992;BMP280;12205;50.600;4.608;2023-03-20T07:08:16;100348.22;;;7.15
23992;BMP280;12205;50.600;4.608;2023-03-20T07:10:43;100357.13;;;7.10
23992;BMP280;12205;50.600;4.608;2023-03-20T07:13:13;100351.19;;;7.13
23992;BMP280;12205;50.600;4.608;2023-03-20T07:15:42;100364.00;;;7.11
23992;BMP280;12205;50.600;4.608;2023-03-20T07:18:13;100360.25;;;7.12
23992;BMP280;12205;50.600;4.608;2023-03-20T07:20:41;100357.44;;;7.17
23992;BMP280;12205;50.600;4.608;2023-03-20T07:23:08;100377.78;;;7.13
23992;BMP280;12205;50.600;4.608;2023-03-20T07:25:35;100389.03;;;7.10
23992;BMP280;12205;50.600;4.608;2023-03-20T07:28:06;100389.28;;;6.96
23992;BMP280;12205;50.600;4.608;2023-03-20T07:30:37;100398.50;;;6.99
23992;BMP280;12205;50.600;4.608;2023-03-20T07:33:05;100404.91;;;6.98
23992;BMP280;12205;50.600;4.608;2023-03-20T07:35:33;100402.25;;;6.98
23992;BMP280;12205;50.600;4.608;2023-03-20T07:38:00;100413.50;;;6.95
23992;BMP280;12205;50.600;4.608;2023-03-20T07:40:28;100397.22;;;7.05
23992;BMP280;12205;50.600;4.608;2023-03-20T07:42:59;100407.19;;;7.08
23992;BMP280;12205;50.600;4.608;2023-03-20T07:45:47;100432.66;;;7.09
23992;BMP280;12205;50.600;4.608;2023-03-20T07:48:14;100438.34;;;6.99
23992;BMP280;12205;50.600;4.608;2023-03-20T07:50:41;100431.63;;;7.02
23992;BMP280;12205;50.600;4.608;2023-03-20T07:53:08;100427.66;;;7.08
23992;BMP280;12205;50.600;4.608;2023-03-20T07:55:35;100428.84;;;7.19
23992;BMP280;12205;50.600;4.608;2023-03-20T07:58:02;100456.88;;;7.16
23992;BMP280;12205;50.600;4.608;2023-03-20T08:00:29;100462.50;;;7.15
23992;BMP280;12205;50.600;4.608;2023-03-20T08:02:58;100468.75;;;7.10
23992;BMP280;12205;50.600;4.608;2023-03-20T08:05:25;100489.41;;;7.13
23992;BMP280;12205;50.600;4.608;2023-03-20T08:07:52;100508.31;;;7.12
23992;BMP280;12205;50.600;4.608;2023-03-20T08:10:19;100485.63;;;7.14
23992;BMP280;12205;50.600;4.608;2023-03-20T08:12:47;100478.59;;;7.18
23992;BMP280;12205;50.600;4.608;2023-03-20T08:15:14;100468.91;;;7.35
23992;BMP280;12205;50.600;4.608;2023-03-20T08:17:42;100466.97;;;7.44
23992;BMP280;12205;50.600;4.608;2023-03-20T08:20:13;100477.44;;;7.49
23992;BMP280;12205;50.600;4.608;2023-03-20T08:22:42;100500.22;;;7.59
23992;BMP280;12205;50.600;4.608;2023-03-20T08:25:10;100500.97;;;7.60
23992;BMP280;12205;50.600;4.608;2023-03-20T08:27:37;100492.13;;;7.68
23992;BMP280;12205;50.600;4.608;2023-03-20T08:30:06;100492.66;;;7.82
23992;BMP280;12205;50.600;4.608;2023-03-20T08:32:33;100502.78;;;7.89
23992;BMP280;12205;50.600;4.608;2023-03-20T08:35:01;100522.53;;;7.88
23992;BMP280;12205;50.600;4.608;2023-03-20T08:37:29;100521.84;;;7.91
23992;BMP280;12205;50.600;4.608;2023-03-20T08:39:56;100527.75;;;7.97
23992;BMP280;12205;50.600;4.608;2023-03-20T08:42:24;100529.78;;;8.00
23992;BMP280;12205;50.600;4.608;2023-03-20T08:44:51;100524.63;;;7.95
23992;BMP280;12205;50.600;4.608;2023-03-20T08:47:18;100535.75;;;7.97
23992;BMP280;12205;50.600;4.608;2023-03-20T08:49:45;100530.16;;;7.89
23992;BMP280;12205;50.600;4.608;2023-03-20T08:52:12;100536.59;;;7.88
23992;BMP280;12205;50.600;4.608;2023-03-20T08:54:41;100538.09;;;7.98
23992;BMP280;12205;50.600;4.608;2023-03-20T08:57:08;100540.22;;;8.05
23992;BMP280;12205;50.600;4.608;2023-03-20T08:59:35;100556.84;;;8.02
23992;BMP280;12205;50.600;4.608;2023-03-20T09:02:03;100552.75;;;8.04
23992;BMP280;12205;50.600;4.608;2023-03-20T09:04:30;100555.00;;;8.15
23992;BMP280;12205;50.600;4.608;2023-03-20T09:06:57;100570.63;;;8.16
23992;BMP280;12205;50.600;4.608;2023-03-20T09:09:26;100569.53;;;8.17
23992;BMP280;12205;50.600;4.608;2023-03-20T09:11:56;100577.75;;;8.24
23992;BMP280;12205;50.600;4.608;2023-03-20T09:14:24;100583.47;;;8.35
23992;BMP280;12205;50.600;4.608;2023-03-20T09:16:52;100577.41;;;8.47
23992;BMP280;12205;50.600;4.608;2023-03-20T09:19:19;100587.97;;;8.56
23992;BMP280;12205;50.600;4.608;2023-03-20T09:21:46;100598.09;;;8.62
23992;BMP280;12205;50.600;4.608;2023-03-20T09:24:14;100610.03;;;8.56
23992;BMP280;12205;50.600;4.608;2023-03-20T09:26:41;100611.94;;;8.56
23992;BMP280;12205;50.600;4.608;2023-03-20T09:29:09;100597.19;;;8.58
23992;BMP280;12205;50.600;4.608;2023-03-20T09:31:37;100597.19;;;8.58
23992;BMP280;12205;50.600;4.608;2023-03-20T09:34:04;100603.50;;;8.66
23992;BMP280;12205;50.600;4.608;2023-03-20T09:36:31;100611.31;;;8.71
23992;BMP280;12205;50.600;4.608;2023-03-20T09:38:58;100608.31;;;8.73
23992;BMP280;12205;50.600;4.608;2023-03-20T09:41:26;100609.78;;;8.83
23992;BMP280;12205;50.600;4.608;2023-03-20T09:44:17;100620.13;;;8.84
23992;BMP280;12205;50.600;4.608;2023-03-20T09:47:02;100625.69;;;8.91
23992;BMP280;12205;50.600;4.608;2023-03-20T09:49:46;100622.91;;;9.00
23992;BMP280;12205;50.600;4.608;2023-03-20T09:52:21;100637.47;;;9.03
23992;BMP280;12205;50.600;4.608;2023-03-20T09:54:54;100639.47;;;9.06
23992;BMP280;12205;50.600;4.608;2023-03-20T09:57:27;100637.03;;;9.13
23992;BMP280;12205;50.600;4.608;2023-03-20T10:00:02;100640.91;;;9.15
23992;BMP280;12205;50.600;4.608;2023-03-20T10:02:47;100648.47;;;9.26
23992;BMP280;12205;50.600;4.608;2023-03-20T10:05:22;100640.78;;;9.36
23992;BMP280;12205;50.600;4.608;2023-03-20T10:07:52;100663.03;;;9.41
23992;BMP280;12205;50.600;4.608;2023-03-20T10:10:30;100653.50;;;9.52
23992;BMP280;12205;50.600;4.608;2023-03-20T10:13:25;100649.47;;;9.70
23992;BMP280;12205;50.600;4.608;2023-03-20T10:16:07;100663.41;;;9.92
23992;BMP280;12205;50.600;4.608;2023-03-20T10:18:45;100662.03;;;10.11
23992;BMP280;12205;50.600;4.608;2023-03-20T10:21:19;100657.66;;;10.18
23992;BMP280;12205;50.600;4.608;2023-03-20T10:23:56;100665.09;;;10.25
23992;BMP280;12205;50.600;4.608;2023-03-20T10:26:27;100655.72;;;10.31
23992;BMP280;12205;50.600;4.608;2023-03-20T10:28:58;100655.91;;;10.38
23992;BMP280;12205;50.600;4.608;2023-03-20T10:31:42;100657.84;;;10.54
23992;BMP280;12205;50.600;4.608;2023-03-20T10:34:31;100664.25;;;10.65
23992;BMP280;12205;50.600;4.608;2023-03-20T10:37:26;100672.66;;;10.67
23992;BMP280;12205;50.600;4.608;2023-03-20T10:40:13;100671.56;;;10.68
23992;BMP280;12205;50.600;4.608;2023-03-20T10:42:47;100675.78;;;10.69
23992;BMP280;12205;50.600;4.608;2023-03-20T10:45:30;100666.97;;;10.53
23992;BMP280;12205;50.600;4.608;2023-03-20T10:48:06;100661.31;;;10.42
23992;BMP280;12205;50.600;4.608;2023-03-20T10:50:42;100650.63;;;10.42
23992;BMP280;12205;50.600;4.608;2023-03-20T10:53:24;100658.69;;;10.58
23992;BMP280;12205;50.600;4.608;2023-03-20T10:55:57;100661.13;;;10.63
23992;BMP280;12205;50.600;4.608;2023-03-20T10:58:27;100669.59;;;10.65
23992;BMP280;12205;50.600;4.608;2023-03-20T11:00:57;100664.25;;;10.65
23992;BMP280;12205;50.600;4.608;2023-03-20T11:03:28;100663.03;;;10.78
23992;BMP280;12205;50.600;4.608;2023-03-20T11:06:01;100668.38;;;10.78
23992;BMP280;12205;50.600;4.608;2023-03-20T11:08:35;100658.63;;;10.70
23992;BMP280;12205;50.600;4.608;2023-03-20T11:11:04;100658.00;;;10.61
23992;BMP280;12205;50.600;4.608;2023-03-20T11:13:34;100655.00;;;10.62
23992;BMP280;12205;50.600;4.608;2023-03-20T11:16:19;100656.06;;;10.74
23992;BMP280;12205;50.600;4.608;2023-03-20T11:18:50;100644.59;;;10.73
23992;BMP280;12205;50.600;4.608;2023-03-20T11:21:22;100646.38;;;10.85
23992;BMP280;12205;50.600;4.608;2023-03-20T11:23:51;100643.31;;;10.83
23992;BMP280;12205;50.600;4.608;2023-03-20T11:26:33;100635.78;;;10.89
23992;BMP280;12205;50.600;4.608;2023-03-20T11:29:05;100637.66;;;11.04
23992;BMP280;12205;50.600;4.608;2023-03-20T11:31:34;100641.28;;;11.12
23992;BMP280;12205;50.600;4.608;2023-03-20T11:34:21;100644.81;;;11.00
23992;BMP280;12205;50.600;4.608;2023-03-20T11:36:57;100625.94;;;10.93
23992;BMP280;12205;50.600;4.608;2023-03-20T11:39:27;100633.72;;;10.98
23992;BMP280;12205;50.600;4.608;2023-03-20T11:41:59;100642.31;;;11.07
23992;BMP280;12205;50.600;4.608;2023-03-20T11:44:29;100640.06;;;11.09
23992;BMP280;12205;50.600;4.608;2023-03-20T11:47:00;100631.44;;;11.00
23992;BMP280;12205;50.600;4.608;2023-03-20T11:49:32;100628.19;;;10.91
23992;BMP280;12205;50.600;4.608;2023-03-20T11:52:13;100606.78;;;10.91
23992;BMP280;12205;50.600;4.608;2023-03-20T11:54:49;100602.97;;;10.92
23992;BMP280;12205;50.600;4.608;2023-03-20T11:57:32;100594.56;;;10.90
23992;BMP280;12205;50.600;4.608;2023-03-20T12:00:05;100598.69;;;10.71
23992;BMP280;12205;50.600;4.608;2023-03-20T12:02:35;100595.66;;;10.73
23992;BMP280;12205;50.600;4.608;2023-03-20T12:05:26;100592.13;;;10.85
23992;BMP280;12205;50.600;4.608;2023-03-20T12:07:56;100591.69;;;10.82
23992;BMP280;12205;50.600;4.608;2023-03-20T12:10:28;100580.88;;;10.95
23992;BMP280;12205;50.600;4.608;2023-03-20T12:13:02;100588.63;;;11.00
23992;BMP280;12205;50.600;4.608;2023-03-20T12:15:36;100599.44;;;10.88
23992;BMP280;12205;50.600;4.608;2023-03-20T12:18:09;100582.03;;;10.94
23992;BMP280;12205;50.600;4.608;2023-03-20T12:20:52;100574.31;;;11.08
23992;BMP280;12205;50.600;4.608;2023-03-20T12:23:30;100595.84;;;11.15
23992;BMP280;12205;50.600;4.608;2023-03-20T12:26:03;100588.75;;;11.04
23992;BMP280;12205;50.600;4.608;2023-03-20T12:28:38;100581.81;;;11.02
23992;BMP280;12205;50.600;4.608;2023-03-20T12:31:21;100575.78;;;11.06
23992;BMP280;12205;50.600;4.608;2023-03-20T12:33:56;100584.47;;;11.18
23992;BMP280;12205;50.600;4.608;2023-03-20T12:36:31;100576.25;;;11.27
23992;BMP280;12205;50.600;4.608;2023-03-20T12:39:03;100572.88;;;11.50
23992;BMP280;12205;50.600;4.608;2023-03-20T12:41:43;100565.38;;;11.75
23992;BMP280;12205;50.600;4.608;2023-03-20T12:44:36;100564.19;;;11.95
23992;BMP280;12205;50.600;4.608;2023-03-20T12:47:44;100572.38;;;12.03
23992;BMP280;12205;50.600;4.608;2023-03-20T12:50:24;100585.31;;;12.01
23992;BMP280;12205;50.600;4.608;2023-03-20T12:53:16;100581.53;;;12.02
23992;BMP280;12205;50.600;4.608;2023-03-20T12:56:01;100585.53;;;12.11
23992;BMP280;12205;50.600;4.608;2023-03-20T12:58:39;100582.50;;;12.13
23992;BMP280;12205;50.600;4.608;2023-03-20T13:01:15;100591.06;;;12.22
23992;BMP280;12205;50.600;4.608;2023-03-20T13:04:03;100595.59;;;12.18
23992;BMP280;12205;50.600;4.608;2023-03-20T13:06:48;100575.94;;;12.34
23992;BMP280;12205;50.600;4.608;2023-03-20T13:09:47;100577.13;;;12.59
23992;BMP280;12205;50.600;4.608;2023-03-20T13:12:34;100581.97;;;12.77
23992;BMP280;12205;50.600;4.608;2023-03-20T13:15:17;100581.66;;;13.09
23992;BMP280;12205;50.600;4.608;2023-03-20T13:17:51;100578.25;;;13.42
23992;BMP280;12205;50.600;4.608;2023-03-20T13:20:24;100572.16;;;13.45
23992;BMP280;12205;50.600;4.608;2023-03-20T13:23:09;100580.47;;;13.36
23992;BMP280;12205;50.600;4.608;2023-03-20T13:25:56;100583.50;;;13.31
23992;BMP280;12205;50.600;4.608;2023-03-20T13:28:34;100582.81;;;13.41
23992;BMP280;12205;50.600;4.608;2023-03-20T13:31:24;100585.66;;;13.18
23992;BMP280;12205;50.600;4.608;2023-03-20T13:34:06;100593.97;;;13.13
23992;BMP280;12205;50.600;4.608;2023-03-20T13:36:57;100588.63;;;13.13
23992;BMP280;12205;50.600;4.608;2023-03-20T13:39:33;100583.75;;;12.92
23992;BMP280;12205;50.600;4.608;2023-03-20T13:42:08;100573.09;;;12.99
23992;BMP280;12205;50.600;4.608;2023-03-20T13:44:41;100567.63;;;13.19
23992;BMP280;12205;50.600;4.608;2023-03-20T13:47:14;100554.31;;;13.30
23992;BMP280;12205;50.600;4.608;2023-03-20T13:49:52;100554.34;;;13.33
23992;BMP280;12205;50.600;4.608;2023-03-20T13:52:28;100557.53;;;13.42
23992;BMP280;12205;50.600;4.608;2023-03-20T13:55:15;100554.13;;;13.45
23992;BMP280;12205;50.600;4.608;2023-03-20T13:58:10;100555.97;;;13.41
23992;BMP280;12205;50.600;4.608;2023-03-20T14:00:49;100550.16;;;13.32
23992;BMP280;12205;50.600;4.608;2023-03-20T14:03:25;100551.44;;;13.45
23992;BMP280;12205;50.600;4.608;2023-03-20T14:05:54;100554.88;;;13.46
23992;BMP280;12205;50.600;4.608;2023-03-20T14:08:33;100555.44;;;13.29
23992;BMP280;12205;50.600;4.608;2023-03-20T14:11:15;100556.66;;;13.31
23992;BMP280;12205;50.600;4.608;2023-03-20T14:14:07;100555.72;;;13.20
23992;BMP280;12205;50.600;4.608;2023-03-20T14:16:34;100555.81;;;13.27
23992;BMP280;12205;50.600;4.608;2023-03-20T14:19:08;100558.81;;;13.22
23992;BMP280;12205;50.600;4.608;2023-03-20T14:21:44;100548.44;;;13.17
23992;BMP280;12205;50.600;4.608;2023-03-20T14:24:16;100545.81;;;12.94
23992;BMP280;12205;50.600;4.608;2023-03-20T14:26:49;100553.81;;;12.90
23992;BMP280;12205;50.600;4.608;2023-03-20T14:29:32;100540.72;;;12.85
23992;BMP280;12205;50.600;4.608;2023-03-20T14:32:22;100530.28;;;12.80
23992;BMP280;12205;50.600;4.608;2023-03-20T14:34:52;100527.59;;;12.80
23992;BMP280;12205;50.600;4.608;2023-03-20T14:40:55;100540.84;;;12.96
23992;BMP280;12205;50.600;4.608;2023-03-20T14:43:51;100538.28;;;12.76
23992;BMP280;12205;50.600;4.608;2023-03-20T14:46:39;100526.69;;;12.68
23992;BMP280;12205;50.600;4.608;2023-03-20T14:49:49;100537.22;;;12.54
23992;BMP280;12205;50.600;4.608;2023-03-20T14:52:39;100528.59;;;12.41
23992;BMP280;12205;50.600;4.608;2023-03-20T14:55:32;100528.63;;;12.45